Buoy 46905

sailwx.info

Track history (hours):
 
Tides and Currents Weather Stations Pressure Air Temp Water Temp Dewpoint Dewpoint Depression Visibility Wind Speed Wind Dir Waves Ship Positions

Drifting buoy 46905

Last reported at 2018-Mar-19 20:00 UTC. Time now 2018-May-22 10:16 UTC.
Position N 54°07' W 141°27'.
Warning: this ship's position is months out of date.

Water temperature 5.6 ° C

Date/timePositionNaut miles runAvg speedWind from/ knotsBaromVisibWave heightAir tempDewpointWater temp
2018-Mar-19 20:00N 54°07' W 141°27'0 0.0 5.6
2018-Mar-19 19:00N 54°07' W 141°27'1 0.9 5.6
2018-Mar-19 18:00N 54°07' W 141°28'0 0.4 5.6
2018-Mar-19 17:00N 54°07' W 141°29'1 0.7 5.6
2018-Mar-19 16:00N 54°07' W 141°30'1 0.7 5.6
2018-Mar-19 15:00N 54°07' W 141°31'0 0.4 5.6
2018-Mar-19 14:00N 54°07' W 141°31'2 1.5 5.6
2018-Mar-19 13:00N 54°07' W 141°33'0 0.0 5.6
2018-Mar-19 12:00N 54°07' W 141°33'1 0.1 5.6
2018-Mar-19 08:00N 54°06' W 141°33'0 0.0 5.6
2018-Mar-19 07:00N 54°06' W 141°33'1 0.6 5.6
2018-Mar-19 06:00N 54°07' W 141°33'1 0.5 5.7
2018-Mar-19 04:00N 54°07' W 141°34'0 0.4 5.7
2018-Mar-19 03:00N 54°07' W 141°35'2 1.5 5.7
2018-Mar-19 02:00N 54°08' W 141°37'1 0.9 5.7
2018-Mar-19 01:00N 54°07' W 141°38'1 0.7 5.7
2018-Mar-19 00:00N 54°07' W 141°39'1 0.7 5.6
2018-Mar-18 23:00N 54°07' W 141°40'0 0.0 5.6
2018-Mar-18 22:00N 54°07' W 141°40'1 0.3 5.6
2018-Mar-18 20:00N 54°06' W 141°41'1 0.6 5.6
2018-Mar-18 19:00N 54°05' W 141°41'0 0.4 5.6
2018-Mar-18 18:00N 54°05' W 141°41'0 0.4 5.6
2018-Mar-18 17:00N 54°05' W 141°42'0 0.0 5.5
2018-Mar-18 16:00N 54°05' W 141°42'0 0.0 5.5
2018-Mar-18 15:00N 54°05' W 141°42'0 0.0 5.5
2018-Mar-18 14:00N 54°05' W 141°42'4 3.9 5.5
2018-Mar-18 13:00N 54°05' W 141°49'3 3.2 5.5
2018-Mar-18 12:00N 54°05' W 141°43'3 0.6 5.5
2018-Mar-18 07:00N 54°05' W 141°49'1 0.6 5.6
2018-Mar-18 06:00N 54°04' W 141°49'1 1.4 5.6
2018-Mar-18 05:00N 54°03' W 141°50'1 0.7 5.6
2018-Mar-18 04:00N 54°03' W 141°49'0 0.4 5.6
2018-Mar-18 03:00N 54°03' W 141°48'0 0.0 5.6
2018-Mar-18 02:00N 54°03' W 141°48'0 0.0 5.6
2018-Mar-18 01:00N 54°03' W 141°48'   5.6
2018-Mar-15 06:00N 53°52' W 142°07'1 0.7 5.4
2018-Mar-15 05:00N 53°51' W 142°06'1 0.7 5.4
2018-Mar-15 04:00N 53°51' W 142°07'1 0.3 5.4
2018-Mar-14 23:00N 53°52' W 142°08'2 2.2 5.5
2018-Mar-14 22:00N 53°53' W 142°12'2 2.2 5.5
2018-Mar-14 21:00N 53°52' W 142°08'2 0.3 5.5
2018-Mar-14 14:00N 53°53' W 142°12'0 0.0 5.5
2018-Mar-14 13:00N 53°53' W 142°12'1 1.4 5.5
2018-Mar-14 12:00N 53°52' W 142°11'0 0.0 5.5
2018-Mar-14 11:00N 53°52' W 142°11'2 0.4 5.5
2018-Mar-14 07:00N 53°52' W 142°08'1 1.2 5.5
2018-Mar-14 06:00N 53°53' W 142°08'0 0.0 5.5
2018-Mar-14 05:00N 53°53' W 142°08'0 0.4 5.5
2018-Mar-14 04:00N 53°53' W 142°09'1 0.7 5.5
2018-Mar-14 03:00N 53°53' W 142°10'1 1.2 5.5
2018-Mar-14 02:00N 53°53' W 142°12'1 0.9 5.6
2018-Mar-14 01:00N 53°52' W 142°13'0 0.0 5.6
2018-Mar-14 00:00N 53°52' W 142°13'1 1.3 5.5
2018-Mar-13 23:00N 53°51' W 142°14'2 1.9 5.6
2018-Mar-13 22:00N 53°49' W 142°13'1 0.5 5.5
2018-Mar-13 20:00N 53°49' W 142°11'0 0.0 5.5
2018-Mar-13 19:00N 53°49' W 142°11'2 0.3 5.4
2018-Mar-13 13:00N 53°47' W 142°10'6 6.1 5.4
2018-Mar-13 12:00N 53°41' W 142°11'0 0.0 5.4
2018-Mar-13 11:00N 53°41' W 142°11'1 0.2 5.4
2018-Mar-13 07:00N 53°41' W 142°10'2 2.1 5.4
2018-Mar-13 06:00N 53°39' W 142°12'2 1.6 5.4
2018-Mar-13 05:00N 53°38' W 142°10'2 2.3 5.4
2018-Mar-13 04:00N 53°36' W 142°08'1 1.2 5.4
2018-Mar-13 03:00N 53°37' W 142°06'1 1.3 5.4
2018-Mar-13 02:00N 53°35' W 142°05'2 1.9 5.4
2018-Mar-13 01:00N 53°35' W 142°02'0 0.0 5.4
2018-Mar-13 00:00N 53°35' W 142°02'1 1.2 5.4
2018-Mar-12 23:00N 53°34' W 142°01'1 1.1 5.4
2018-Mar-12 22:00N 53°34' W 141°59'1 0.6 5.4
2018-Mar-12 21:00N 53°35' W 141°59'1 1.2 5.4
2018-Mar-12 20:00N 53°34' W 141°59'1 1.2 5.4
2018-Mar-12 19:00N 53°33' W 141°57'3 1.3 5.4
2018-Mar-12 17:00N 53°31' W 141°55'1 0.7 5.4
2018-Mar-12 16:00N 53°31' W 141°54'1 1.1 5.4
2018-Mar-12 15:00N 53°31' W 141°52'1 0.7 5.4
2018-Mar-12 14:00N 53°30' W 141°52'2 1.9 5.4
2018-Mar-12 13:00N 53°31' W 141°49'1 0.7 5.4
2018-Mar-12 12:00N 53°31' W 141°49'6 1.1 5.4
2018-Mar-12 07:00N 53°35' W 141°43'1 0.7 5.4
2018-Mar-12 06:00N 53°35' W 141°41'1 0.7 5.4
2018-Mar-12 05:00N 53°35' W 141°42'0 0.4 5.4
2018-Mar-12 04:00N 53°35' W 141°41'1 0.7 5.4
2018-Mar-12 03:00N 53°34' W 141°42'1 0.7 5.4
2018-Mar-12 02:00N 53°34' W 141°41'1 1.4 5.5
2018-Mar-12 01:00N 53°34' W 141°39'1 0.9 5.5
2018-Mar-12 00:00N 53°33' W 141°40'0 0.0 5.5
2018-Mar-11 23:00N 53°33' W 141°40'1 1.1 5.4
2018-Mar-11 22:00N 53°33' W 141°38'0 0.0 5.4
2018-Mar-11 21:00N 53°33' W 141°38'1 0.3 5.4
2018-Mar-11 19:00N 53°34' W 141°39'0 0.4 5.4
2018-Mar-11 18:00N 53°34' W 141°40'1 0.7 5.4
2018-Mar-11 17:00N 53°34' W 141°41'1 1.1 5.4
2018-Mar-11 16:00N 53°34' W 141°43'1 0.7 5.4
2018-Mar-11 15:00N 53°34' W 141°43'4 4.0 5.4
2018-Mar-11 14:00N 53°31' W 141°46'6 2.8 5.4
2018-Mar-11 12:00N 53°25' W 141°43'0 0.0 5.4
2018-Mar-11 08:00N 53°25' W 141°43'0 0.0 5.4
2018-Mar-11 07:00N 53°25' W 141°43'0 0.0 5.4
2018-Mar-11 06:00N 53°25' W 141°43'2 0.7 5.4
2018-Mar-11 03:00N 53°25' W 141°40'2 1.6 5.4
2018-Mar-11 02:00N 53°24' W 141°42'2 1.6 5.4
2018-Mar-11 01:00N 53°25' W 141°40'1 0.7 5.4
2018-Mar-11 00:00N 53°24' W 141°39'1 0.6 5.4
2018-Mar-10 23:00N 53°23' W 141°39'1 1.2 5.4
2018-Mar-10 22:00N 53°23' W 141°37'2 1.6 5.4
2018-Mar-10 21:00N 53°22' W 141°35'0 0.0 5.4
2018-Mar-10 20:00N 53°22' W 141°35'1 0.7 5.4
2018-Mar-10 19:00N 53°22' W 141°34'1 0.7 5.4
2018-Mar-10 18:00N 53°22' W 141°32'1 1.1 5.4
2018-Mar-10 17:00N 53°22' W 141°31'0 0.0 5.4
2018-Mar-10 16:00N 53°22' W 141°31'0 0.0 5.4
2018-Mar-10 15:00N 53°22' W 141°31'1 1.1 5.4
2018-Mar-10 14:00N 53°22' W 141°32'0 0.0 5.4
2018-Mar-10 13:00N 53°22' W 141°32'4 3.6 5.4
2018-Mar-10 12:00N 53°19' W 141°32'0 0.0 5.4
2018-Mar-10 07:00N 53°19' W 141°32'1 1.2 5.4
2018-Mar-10 06:00N 53°18' W 141°31'1 0.7 5.4
2018-Mar-10 05:00N 53°17' W 141°31'0 0.4 5.4
2018-Mar-10 04:00N 53°17' W 141°31'1 0.7 5.4
2018-Mar-10 03:00N 53°17' W 141°29'1 0.7 5.4
2018-Mar-10 02:00N 53°17' W 141°31'0 0.0 5.4
2018-Mar-10 01:00N 53°17' W 141°31'1 1.1 5.4
2018-Mar-10 00:00N 53°17' W 141°32'2 1.6 5.4
2018-Mar-09 23:00N 53°17' W 141°35'1 0.7 5.4
2018-Mar-09 22:00N 53°16' W 141°34'0 0.0 5.5
2018-Mar-09 21:00N 53°16' W 141°34'0 0.4 5.5
2018-Mar-09 20:00N 53°16' W 141°35'   5.4
Track history (hours):
 
Tides and Currents Weather Stations Pressure Air Temp Water Temp Dewpoint Dewpoint Depression Visibility Wind Speed Wind Dir Waves Ship Positions

Drifting buoy 46905

Last reported at 2018-Mar-19 20:00 UTC. Time now 2018-May-22 10:16 UTC.
Position N 54°07' W 141°27'.
Warning: this ship's position is months out of date.

Water temperature 5.6 ° C

Date/timePositionNaut miles runAvg speedWind from/ knotsBaromVisibWave heightAir tempDewpointWater temp
2018-Mar-19 20:00N 54°07' W 141°27'0 0.0 5.6
2018-Mar-19 19:00N 54°07' W 141°27'1 0.9 5.6
2018-Mar-19 18:00N 54°07' W 141°28'0 0.4 5.6
2018-Mar-19 17:00N 54°07' W 141°29'1 0.7 5.6
2018-Mar-19 16:00N 54°07' W 141°30'1 0.7 5.6
2018-Mar-19 15:00N 54°07' W 141°31'0 0.4 5.6
2018-Mar-19 14:00N 54°07' W 141°31'2 1.5 5.6
2018-Mar-19 13:00N 54°07' W 141°33'0 0.0 5.6
2018-Mar-19 12:00N 54°07' W 141°33'1 0.1 5.6
2018-Mar-19 08:00N 54°06' W 141°33'0 0.0 5.6
2018-Mar-19 07:00N 54°06' W 141°33'1 0.6 5.6
2018-Mar-19 06:00N 54°07' W 141°33'1 0.5 5.7
2018-Mar-19 04:00N 54°07' W 141°34'0 0.4 5.7
2018-Mar-19 03:00N 54°07' W 141°35'2 1.5 5.7
2018-Mar-19 02:00N 54°08' W 141°37'1 0.9 5.7
2018-Mar-19 01:00N 54°07' W 141°38'1 0.7 5.7
2018-Mar-19 00:00N 54°07' W 141°39'1 0.7 5.6
2018-Mar-18 23:00N 54°07' W 141°40'0 0.0 5.6
2018-Mar-18 22:00N 54°07' W 141°40'1 0.3 5.6
2018-Mar-18 20:00N 54°06' W 141°41'1 0.6 5.6
2018-Mar-18 19:00N 54°05' W 141°41'0 0.4 5.6
2018-Mar-18 18:00N 54°05' W 141°41'0 0.4 5.6
2018-Mar-18 17:00N 54°05' W 141°42'0 0.0 5.5
2018-Mar-18 16:00N 54°05' W 141°42'0 0.0 5.5
2018-Mar-18 15:00N 54°05' W 141°42'0 0.0 5.5
2018-Mar-18 14:00N 54°05' W 141°42'4 3.9 5.5
2018-Mar-18 13:00N 54°05' W 141°49'3 3.2 5.5
2018-Mar-18 12:00N 54°05' W 141°43'3 0.6 5.5
2018-Mar-18 07:00N 54°05' W 141°49'1 0.6 5.6
2018-Mar-18 06:00N 54°04' W 141°49'1 1.4 5.6
2018-Mar-18 05:00N 54°03' W 141°50'1 0.7 5.6
2018-Mar-18 04:00N 54°03' W 141°49'0 0.4 5.6
2018-Mar-18 03:00N 54°03' W 141°48'0 0.0 5.6
2018-Mar-18 02:00N 54°03' W 141°48'0 0.0 5.6
2018-Mar-18 01:00N 54°03' W 141°48'   5.6
2018-Mar-15 06:00N 53°52' W 142°07'1 0.7 5.4
2018-Mar-15 05:00N 53°51' W 142°06'1 0.7 5.4
2018-Mar-15 04:00N 53°51' W 142°07'1 0.3 5.4
2018-Mar-14 23:00N 53°52' W 142°08'2 2.2 5.5
2018-Mar-14 22:00N 53°53' W 142°12'2 2.2 5.5
2018-Mar-14 21:00N 53°52' W 142°08'2 0.3 5.5
2018-Mar-14 14:00N 53°53' W 142°12'0 0.0 5.5
2018-Mar-14 13:00N 53°53' W 142°12'1 1.4 5.5
2018-Mar-14 12:00N 53°52' W 142°11'0 0.0 5.5
2018-Mar-14 11:00N 53°52' W 142°11'2 0.4 5.5
2018-Mar-14 07:00N 53°52' W 142°08'1 1.2 5.5
2018-Mar-14 06:00N 53°53' W 142°08'0 0.0 5.5
2018-Mar-14 05:00N 53°53' W 142°08'0 0.4 5.5
2018-Mar-14 04:00N 53°53' W 142°09'1 0.7 5.5
2018-Mar-14 03:00N 53°53' W 142°10'1 1.2 5.5
2018-Mar-14 02:00N 53°53' W 142°12'1 0.9 5.6
2018-Mar-14 01:00N 53°52' W 142°13'0 0.0 5.6
2018-Mar-14 00:00N 53°52' W 142°13'1 1.3 5.5
2018-Mar-13 23:00N 53°51' W 142°14'2 1.9 5.6
2018-Mar-13 22:00N 53°49' W 142°13'1 0.5 5.5
2018-Mar-13 20:00N 53°49' W 142°11'0 0.0 5.5
2018-Mar-13 19:00N 53°49' W 142°11'2 0.3 5.4
2018-Mar-13 13:00N 53°47' W 142°10'6 6.1 5.4
2018-Mar-13 12:00N 53°41' W 142°11'0 0.0 5.4
2018-Mar-13 11:00N 53°41' W 142°11'1 0.2 5.4
2018-Mar-13 07:00N 53°41' W 142°10'2 2.1 5.4
2018-Mar-13 06:00N 53°39' W 142°12'2 1.6 5.4
2018-Mar-13 05:00N 53°38' W 142°10'2 2.3 5.4
2018-Mar-13 04:00N 53°36' W 142°08'1 1.2 5.4
2018-Mar-13 03:00N 53°37' W 142°06'1 1.3 5.4
2018-Mar-13 02:00N 53°35' W 142°05'2 1.9 5.4
2018-Mar-13 01:00N 53°35' W 142°02'0 0.0 5.4
2018-Mar-13 00:00N 53°35' W 142°02'1 1.2 5.4
2018-Mar-12 23:00N 53°34' W 142°01'1 1.1 5.4
2018-Mar-12 22:00N 53°34' W 141°59'1 0.6 5.4
2018-Mar-12 21:00N 53°35' W 141°59'1 1.2 5.4
2018-Mar-12 20:00N 53°34' W 141°59'1 1.2 5.4
2018-Mar-12 19:00N 53°33' W 141°57'3 1.3 5.4
2018-Mar-12 17:00N 53°31' W 141°55'1 0.7 5.4
2018-Mar-12 16:00N 53°31' W 141°54'1 1.1 5.4
2018-Mar-12 15:00N 53°31' W 141°52'1 0.7 5.4
2018-Mar-12 14:00N 53°30' W 141°52'2 1.9 5.4
2018-Mar-12 13:00N 53°31' W 141°49'1 0.7 5.4
2018-Mar-12 12:00N 53°31' W 141°49'6 1.1 5.4
2018-Mar-12 07:00N 53°35' W 141°43'1 0.7 5.4
2018-Mar-12 06:00N 53°35' W 141°41'1 0.7 5.4
2018-Mar-12 05:00N 53°35' W 141°42'0 0.4 5.4
2018-Mar-12 04:00N 53°35' W 141°41'1 0.7 5.4
2018-Mar-12 03:00N 53°34' W 141°42'1 0.7 5.4
2018-Mar-12 02:00N 53°34' W 141°41'1 1.4 5.5
2018-Mar-12 01:00N 53°34' W 141°39'1 0.9 5.5
2018-Mar-12 00:00N 53°33' W 141°40'0 0.0 5.5
2018-Mar-11 23:00N 53°33' W 141°40'1 1.1 5.4
2018-Mar-11 22:00N 53°33' W 141°38'0 0.0 5.4
2018-Mar-11 21:00N 53°33' W 141°38'1 0.3 5.4
2018-Mar-11 19:00N 53°34' W 141°39'0 0.4 5.4
2018-Mar-11 18:00N 53°34' W 141°40'1 0.7 5.4
2018-Mar-11 17:00N 53°34' W 141°41'1 1.1 5.4
2018-Mar-11 16:00N 53°34' W 141°43'1 0.7 5.4
2018-Mar-11 15:00N 53°34' W 141°43'4 4.0 5.4
2018-Mar-11 14:00N 53°31' W 141°46'6 2.8 5.4
2018-Mar-11 12:00N 53°25' W 141°43'0 0.0 5.4
2018-Mar-11 08:00N 53°25' W 141°43'0 0.0 5.4
2018-Mar-11 07:00N 53°25' W 141°43'0 0.0 5.4
2018-Mar-11 06:00N 53°25' W 141°43'2 0.7 5.4
2018-Mar-11 03:00N 53°25' W 141°40'2 1.6 5.4
2018-Mar-11 02:00N 53°24' W 141°42'2 1.6 5.4
2018-Mar-11 01:00N 53°25' W 141°40'1 0.7 5.4
2018-Mar-11 00:00N 53°24' W 141°39'1 0.6 5.4
2018-Mar-10 23:00N 53°23' W 141°39'1 1.2 5.4
2018-Mar-10 22:00N 53°23' W 141°37'2 1.6 5.4
2018-Mar-10 21:00N 53°22' W 141°35'0 0.0 5.4
2018-Mar-10 20:00N 53°22' W 141°35'1 0.7 5.4
2018-Mar-10 19:00N 53°22' W 141°34'1 0.7 5.4
2018-Mar-10 18:00N 53°22' W 141°32'1 1.1 5.4
2018-Mar-10 17:00N 53°22' W 141°31'0 0.0 5.4
2018-Mar-10 16:00N 53°22' W 141°31'0 0.0 5.4
2018-Mar-10 15:00N 53°22' W 141°31'1 1.1 5.4
2018-Mar-10 14:00N 53°22' W 141°32'0 0.0 5.4
2018-Mar-10 13:00N 53°22' W 141°32'4 3.6 5.4
2018-Mar-10 12:00N 53°19' W 141°32'0 0.0 5.4
2018-Mar-10 07:00N 53°19' W 141°32'1 1.2 5.4
2018-Mar-10 06:00N 53°18' W 141°31'1 0.7 5.4
2018-Mar-10 05:00N 53°17' W 141°31'0 0.4 5.4
2018-Mar-10 04:00N 53°17' W 141°31'1 0.7 5.4
2018-Mar-10 03:00N 53°17' W 141°29'1 0.7 5.4
2018-Mar-10 02:00N 53°17' W 141°31'0 0.0 5.4
2018-Mar-10 01:00N 53°17' W 141°31'1 1.1 5.4
2018-Mar-10 00:00N 53°17' W 141°32'2 1.6 5.4
2018-Mar-09 23:00N 53°17' W 141°35'1 0.7 5.4
2018-Mar-09 22:00N 53°16' W 141°34'0 0.0 5.5
2018-Mar-09 21:00N 53°16' W 141°34'0 0.4 5.5
2018-Mar-09 20:00N 53°16' W 141°35'   5.4

Dump ship's entire track history